»·PEaware :: N6850D KOXR-KSMX

N6850D :: KOXR-KSMX

FLIGHT INFORMATION

Flight Status: Arrived
Operator: Privately registered:
United States
More flights under this callsign
Pilot: John P. (31881)
Aircraft: Unknown
(WACF)
More flights by this aircraft type
Origin: KOXR Oxnard
United States
Destination: KSMX Santa Maria Pub/Capt Hancock
United States
More flights between these airports :: More routes between these airports
Route: RZS GVO
File this flight plan on PilotEdge
Remarks:
Altitude:
(Current/Filed)
6,500ft
Speed:
(Current/Filed)
100kts
Departed: 31-Jan-21 12:38 PM
Arrived: 31-Jan-21 01:18 PM
Distance/Time
Traveled:
6829nm/0:40
Distance/Time
To Go:
Arrived

Flight Plot

Page will automatically refresh every two minutes.

Flight plan parsing failed; only flown route is shown


Map Options




Map Legend


Flown Route
Filed Route
Departure Airport
Arrival Airport
Navaid (VOR, NDB)
Fix

Horizontal Profiles

Position Reports

Time Latitude Longitude Heading Altitude Ground
Speed
31-Jan-21 11:58 0.000407 0.013975 359 3ft 0kts
31-Jan-21 11:59 0.000407 0.013975 359 3ft 0kts
31-Jan-21 12:00 0.000407 0.013975 359 3ft 0kts
31-Jan-21 12:01 0.000407 0.013975 359 3ft 0kts
31-Jan-21 12:02 0.000407 0.013975 359 3ft 0kts
31-Jan-21 12:03 0.000407 0.013975 359 3ft 0kts
31-Jan-21 12:04 0.000407 0.013975 359 3ft 0kts
31-Jan-21 12:05 0.000407 0.013975 359 3ft 0kts
31-Jan-21 12:06 0.000407 0.013975 359 3ft 0kts
31-Jan-21 12:07 0.000407 0.013975 359 3ft 0kts
31-Jan-21 12:08 0.000407 0.013975 359 3ft 0kts
31-Jan-21 12:09 0.000407 0.013975 359 3ft 0kts
31-Jan-21 12:10 0.000407 0.013975 359 3ft 0kts
31-Jan-21 12:12 34.199270 -119.202625 188 46ft 0kts
31-Jan-21 12:13 34.199270 -119.202625 188 46ft 0kts
31-Jan-21 12:14 34.199270 -119.202625 188 46ft 0kts
31-Jan-21 12:15 34.199270 -119.202625 188 46ft 0kts
31-Jan-21 12:16 34.199270 -119.202625 188 46ft 0kts
31-Jan-21 12:17 34.199270 -119.202625 188 46ft 0kts
31-Jan-21 12:18 34.199270 -119.202625 188 46ft 0kts
31-Jan-21 12:19 34.199270 -119.202625 188 46ft 0kts
31-Jan-21 12:20 34.199270 -119.202625 188 46ft 0kts
31-Jan-21 12:21 34.199270 -119.202625 188 46ft 0kts
31-Jan-21 12:22 34.199270 -119.202625 188 46ft 0kts
31-Jan-21 12:23 34.199270 -119.202625 188 46ft 0kts
31-Jan-21 12:24 34.199270 -119.202625 188 46ft 0kts
31-Jan-21 12:25 34.199270 -119.202625 188 46ft 0kts
31-Jan-21 12:26 34.199270 -119.202625 188 46ft 0kts
31-Jan-21 12:27 34.199270 -119.202625 188 46ft 0kts
31-Jan-21 12:28 34.199707 -119.197755 257 44ft 0kts
31-Jan-21 12:29 34.199270 -119.202625 188 46ft 0kts
31-Jan-21 12:30 34.199270 -119.202625 188 46ft 0kts
31-Jan-21 12:31 34.199270 -119.202625 188 46ft 0kts
31-Jan-21 12:33 34.199270 -119.202625 188 46ft 0kts
31-Jan-21 12:34 34.199270 -119.202625 188 46ft 0kts
31-Jan-21 12:35 34.199427 -119.202592 38 46ft 9kts
31-Jan-21 12:36 34.199858 -119.197606 42 44ft 5kts
31-Jan-21 12:37 34.199979 -119.197518 23 44ft 8kts
31-Jan-21 12:38 34.202106 -119.206719 309 255ft 62kts
31-Jan-21 12:39 34.215310 -119.230856 302 1416ft 95kts
31-Jan-21 12:40 34.226916 -119.261042 305 2602ft 103kts
31-Jan-21 12:41 34.243431 -119.290282 308 3583ft 107kts
31-Jan-21 12:42 34.261308 -119.320475 310 4426ft 112kts
31-Jan-21 12:43 34.280834 -119.349957 305 5240ft 110kts
31-Jan-21 12:44 34.299464 -119.381162 306 5873ft 117kts
31-Jan-21 12:45 34.319564 -119.412294 304 6380ft 120kts
31-Jan-21 12:45 34.335501 -119.440149 302 6624ft 123kts
31-Jan-21 12:47 34.359729 -119.479843 304 6734ft 126kts
31-Jan-21 12:47 34.377027 -119.508578 301 6781ft 126kts
31-Jan-21 12:48 34.395951 -119.543970 297 6760ft 127kts
31-Jan-21 12:50 34.418109 -119.585213 296 6663ft 126kts
31-Jan-21 12:50 34.433732 -119.614819 302 6627ft 127kts
31-Jan-21 12:51 34.454269 -119.649360 302 6624ft 125kts
31-Jan-21 12:52 34.474999 -119.683331 303 6767ft 121kts
31-Jan-21 12:53 34.494082 -119.718075 301 6947ft 124kts
31-Jan-21 12:54 34.509161 -119.755257 271 6930ft 121kts
31-Jan-21 12:55 34.512978 -119.794635 276 6929ft 122kts
31-Jan-21 12:56 34.515279 -119.836038 262 6678ft 124kts
31-Jan-21 12:57 34.515150 -119.877420 269 6542ft 125kts
31-Jan-21 12:58 34.517139 -119.918873 273 6553ft 122kts
31-Jan-21 12:59 34.519819 -119.960103 272 6596ft 123kts
31-Jan-21 13:00 34.523589 -120.000804 269 6897ft 120kts
31-Jan-21 13:01 34.528307 -120.041046 270 6587ft 125kts
31-Jan-21 13:02 34.530999 -120.083922 268 6108ft 128kts
31-Jan-21 13:03 34.536320 -120.125332 312 5455ft 131kts
31-Jan-21 13:04 34.567833 -120.146030 329 4812ft 127kts
31-Jan-21 13:05 34.597812 -120.166304 328 4517ft 120kts
31-Jan-21 13:06 34.625596 -120.189775 322 4456ft 123kts
31-Jan-21 13:07 34.651537 -120.217325 316 4714ft 124kts
31-Jan-21 13:08 34.678537 -120.244941 322 4804ft 128kts
31-Jan-21 13:09 34.706717 -120.271973 317 4808ft 130kts
31-Jan-21 13:10 34.734517 -120.299806 318 4655ft 128kts
31-Jan-21 13:11 34.759816 -120.330042 312 4678ft 127kts
31-Jan-21 13:12 34.787470 -120.356911 326 4245ft 128kts
31-Jan-21 13:13 34.819892 -120.374596 337 2988ft 125kts
31-Jan-21 13:14 34.847981 -120.392914 320 1889ft 113kts
31-Jan-21 13:15 34.870672 -120.419614 316 1117ft 120kts
31-Jan-21 13:16 34.892292 -120.445280 315 342ft 96kts
31-Jan-21 13:17 34.902237 -120.457084 316 234ft 16kts
31-Jan-21 13:18 34.903275 -120.456904 44 232ft 0kts
31-Jan-21 13:19 34.903050 -120.455722 133 233ft 8kts
31-Jan-21 13:20 34.901383 -120.453723 136 239ft 8kts
31-Jan-21 13:21 34.900959 -120.451855 47 241ft 0kts
31-Jan-21 13:22 0.000407 0.013975 359 3ft 0kts
31-Jan-21 13:23 0.000407 0.013975 359 3ft 0kts
31-Jan-21 13:24 0.000407 0.013975 359 3ft 0kts
31-Jan-21 13:25 0.000408 0.013975 0 5ft 0kts

Navigation Log

Ident Type
Flight plan parsing failed, navigation log unavailable